Time;durP1;ratioP1;P1;durP2;ratioP2;P2;SDS_P1;SDS_P2;PMS_P1;PMS_P2;Temp;Humidity;BMP_temperature;BMP_pressure;BME280_temperature;BME280_humidity;BME280_pressure;Samples;Min_cycle;Max_cycle;Signal;HPM_P1;HPM_P2
2023/10/29 00:01:41;;;;;;;3.53;1.27;;;13.00;99.90;;;;;;5033964;28;20121;-78
2023/10/29 00:04:07;;;;;;;2.65;1.05;;;13.00;99.90;;;;;;5036676;28;20053;-77
2023/10/29 00:06:34;;;;;;;6.45;1.40;;;13.00;99.90;;;;;;5032130;28;20079;-77
2023/10/29 00:09:00;;;;;;;4.45;1.23;;;13.00;99.90;;;;;;5032865;28;20104;-77
2023/10/29 00:11:25;;;;;;;2.08;1.20;;;13.10;99.90;;;;;;5040666;28;20116;-77
2023/10/29 00:13:51;;;;;;;3.90;1.10;;;13.10;99.90;;;;;;5073112;22;20057;-77
2023/10/29 00:16:17;;;;;;;4.75;1.55;;;13.10;99.90;;;;;;5043729;28;20025;-77
2023/10/29 00:18:43;;;;;;;3.60;1.17;;;13.10;99.90;;;;;;5046171;28;20024;-78
2023/10/29 00:21:09;;;;;;;4.05;1.27;;;13.10;99.90;;;;;;5044415;28;20120;-78
2023/10/29 00:23:34;;;;;;;2.00;1.20;;;13.20;99.90;;;;;;5045790;28;20013;-77
2023/10/29 00:26:00;;;;;;;4.65;1.27;;;13.20;99.90;;;;;;5048683;28;20029;-77
2023/10/29 00:28:26;;;;;;;2.80;0.88;;;13.20;99.90;;;;;;5049731;28;20017;-79
2023/10/29 00:30:54;;;;;;;2.28;1.10;;;13.20;99.90;;;;;;5049474;28;20021;-78
2023/10/29 00:33:20;;;;;;;2.28;1.10;;;13.20;99.90;;;;;;5048245;28;20466;-79
2023/10/29 00:35:46;;;;;;;3.08;1.20;;;13.20;99.90;;;;;;5049210;28;20166;-78
2023/10/29 00:38:12;;;;;;;2.78;1.10;;;13.20;99.90;;;;;;5049430;28;20036;-78
2023/10/29 00:40:38;;;;;;;3.05;1.20;;;13.30;99.90;;;;;;5049162;28;20017;-79
2023/10/29 00:43:04;;;;;;;3.97;1.17;;;13.30;99.90;;;;;;5049485;28;20033;-78
2023/10/29 00:45:30;;;;;;;3.60;1.05;;;13.30;99.90;;;;;;5043006;28;20024;-79
2023/10/29 00:47:56;;;;;;;3.38;1.20;;;13.30;99.90;;;;;;5048073;28;20021;-77
2023/10/29 00:50:22;;;;;;;4.70;1.20;;;13.30;99.90;;;;;;5045269;28;20151;-77
2023/10/29 00:52:48;;;;;;;1.80;0.95;;;13.30;99.90;;;;;;5034363;28;20029;-78
2023/10/29 00:55:14;;;;;;;2.28;1.00;;;13.40;99.90;;;;;;5048767;28;20521;-79
2023/10/29 00:57:41;;;;;;;3.88;1.10;;;13.40;99.90;;;;;;5045332;28;20025;-77
2023/10/29 01:00:11;;;;;;;4.53;1.17;;;13.40;99.90;;;;;;5028986;28;20025;-79
2023/10/29 01:02:37;;;;;;;3.92;1.33;;;13.40;99.90;;;;;;5044135;28;20071;-77
2023/10/29 01:05:04;;;;;;;2.00;0.82;;;13.50;99.90;;;;;;5048749;28;20554;-78
2023/10/29 01:07:31;;;;;;;1.55;0.98;;;13.50;99.90;;;;;;5049023;28;20033;-76
2023/10/29 01:09:59;;;;;;;3.72;1.42;;;13.50;99.90;;;;;;5048696;28;20036;-80
2023/10/29 01:12:27;;;;;;;4.03;1.23;;;13.50;99.90;;;;;;5048434;28;20032;-78
2023/10/29 01:14:53;;;;;;;5.05;1.48;;;13.50;99.90;;;;;;5048633;28;20041;-77
2023/10/29 01:17:20;;;;;;;2.45;1.02;;;13.60;99.90;;;;;;5049649;28;20075;-78
2023/10/29 01:19:46;;;;;;;2.88;1.13;;;13.60;99.90;;;;;;5047981;28;20021;-78
2023/10/29 01:22:12;;;;;;;2.55;1.20;;;13.60;99.90;;;;;;5048758;28;20406;-78
2023/10/29 01:24:39;;;;;;;5.07;1.20;;;13.70;99.90;;;;;;5048332;28;20029;-77
2023/10/29 01:27:05;;;;;;;5.50;1.50;;;13.70;99.90;;;;;;5039187;28;20029;-78
2023/10/29 01:29:30;;;;;;;2.38;1.00;;;13.70;99.90;;;;;;5042295;28;20657;-77
2023/10/29 01:31:56;;;;;;;3.45;1.02;;;13.70;99.90;;;;;;5048607;28;20486;-78
2023/10/29 01:34:22;;;;;;;3.28;1.20;;;13.70;99.90;;;;;;5048186;28;20040;-79
2023/10/29 01:36:48;;;;;;;4.05;1.20;;;13.70;99.90;;;;;;5047408;28;20059;-79
2023/10/29 01:39:14;;;;;;;2.50;0.95;;;13.70;99.90;;;;;;5048318;28;20031;-77
2023/10/29 01:41:39;;;;;;;2.20;1.00;;;13.70;99.90;;;;;;5046816;28;20017;-78
2023/10/29 01:44:05;;;;;;;5.50;1.27;;;13.80;99.90;;;;;;5048259;28;20021;-77
2023/10/29 01:46:31;;;;;;;2.55;0.90;;;13.80;99.90;;;;;;5042273;28;20013;-78
2023/10/29 01:48:56;;;;;;;1.73;0.80;;;13.70;99.90;;;;;;5047981;28;20391;-77
2023/10/29 01:51:22;;;;;;;2.22;1.30;;;13.70;99.90;;;;;;5035932;28;20022;-78
2023/10/29 01:53:48;;;;;;;2.33;1.00;;;13.70;99.90;;;;;;5030622;28;20034;-76
2023/10/29 01:56:16;;;;;;;1.67;0.90;;;13.70;99.90;;;;;;5033913;28;20024;-79
2023/10/29 01:58:41;;;;;;;4.07;1.20;;;13.80;99.90;;;;;;5048294;28;20028;-77
2023/10/29 02:01:11;;;;;;;3.65;1.08;;;13.80;99.90;;;;;;5047469;28;20386;-76
2023/10/29 02:03:37;;;;;;;6.15;1.17;;;13.80;99.90;;;;;;5048011;28;20128;-78
2023/10/29 02:06:03;;;;;;;2.75;1.20;;;13.80;99.90;;;;;;5047313;28;20032;-77
2023/10/29 02:08:29;;;;;;;4.20;1.45;;;13.90;99.90;;;;;;5047836;28;20032;-77
2023/10/29 02:10:55;;;;;;;3.50;1.30;;;13.90;99.90;;;;;;5047475;28;20025;-77
2023/10/29 02:13:20;;;;;;;5.80;0.90;;;13.90;99.90;;;;;;5045767;28;20489;-77
2023/10/29 02:15:46;;;;;;;1.75;0.98;;;14.00;99.90;;;;;;5045999;28;20037;-77
2023/10/29 02:18:12;;;;;;;4.60;1.15;;;14.00;99.90;;;;;;5033413;28;20082;-76
2023/10/29 02:20:38;;;;;;;3.67;1.20;;;14.00;99.90;;;;;;5047093;28;20033;-78
2023/10/29 02:23:03;;;;;;;5.93;1.30;;;14.00;99.90;;;;;;5046383;28;20017;-77
2023/10/29 02:25:29;;;;;;;3.30;1.20;;;14.00;99.90;;;;;;5047308;28;20028;-80
2023/10/29 02:27:55;;;;;;;5.95;1.42;;;14.10;99.90;;;;;;5047444;28;20252;-78
2023/10/29 02:30:20;;;;;;;1.90;0.90;;;14.10;99.90;;;;;;5046952;28;20498;-78
2023/10/29 02:32:46;;;;;;;4.47;1.63;;;14.10;99.90;;;;;;5047743;28;20027;-76
2023/10/29 02:35:13;;;;;;;3.20;1.45;;;14.10;99.90;;;;;;5033077;28;20589;-77
2023/10/29 02:37:39;;;;;;;4.35;0.90;;;14.20;99.90;;;;;;5045766;28;20025;-77
2023/10/29 02:40:05;;;;;;;3.08;1.08;;;14.20;99.90;;;;;;5046996;28;20610;-78
2023/10/29 02:42:30;;;;;;;3.65;1.17;;;14.20;99.90;;;;;;5047108;28;20017;-77
2023/10/29 02:44:58;;;;;;;2.83;1.20;;;14.20;99.90;;;;;;5041126;28;20441;-77
2023/10/29 02:47:24;;;;;;;5.18;0.70;;;14.20;99.90;;;;;;5047159;28;20021;-78
2023/10/29 02:49:50;;;;;;;4.72;1.10;;;14.20;99.90;;;;;;5046782;28;20036;-77
2023/10/29 02:52:15;;;;;;;3.00;1.20;;;14.20;99.90;;;;;;5046920;28;20025;-76
2023/10/29 02:54:41;;;;;;;2.15;1.13;;;14.30;99.90;;;;;;5046889;28;20474;-77
2023/10/29 02:57:07;;;;;;;2.03;0.90;;;14.30;99.90;;;;;;5045478;28;20448;-78
2023/10/29 02:59:32;;;;;;;4.40;1.23;;;14.30;99.90;;;;;;5045324;28;20288;-78
2023/10/29 03:01:58;;;;;;;1.42;1.02;;;14.30;99.90;;;;;;5046693;28;20024;-77
2023/10/29 03:04:24;;;;;;;5.57;1.20;;;14.30;99.90;;;;;;5045266;28;20025;-77
2023/10/29 03:06:49;;;;;;;3.10;0.95;;;14.30;99.90;;;;;;5047180;28;20029;-77
2023/10/29 03:09:15;;;;;;;3.38;1.15;;;14.30;99.90;;;;;;5046837;28;20041;-77
2023/10/29 03:11:41;;;;;;;3.95;1.02;;;14.40;99.90;;;;;;5046654;28;20028;-78
2023/10/29 03:14:07;;;;;;;6.00;1.13;;;14.40;99.90;;;;;;5033130;28;20063;-76
2023/10/29 03:16:32;;;;;;;2.00;0.90;;;14.40;99.90;;;;;;5045689;28;20024;-78
2023/10/29 03:18:58;;;;;;;5.32;1.00;;;14.40;99.90;;;;;;5046718;28;20620;-77
2023/10/29 03:21:23;;;;;;;3.50;1.00;;;14.40;99.90;;;;;;5046315;28;20021;-76
2023/10/29 03:23:49;;;;;;;3.08;0.73;;;14.40;99.90;;;;;;5046750;28;20068;-77
2023/10/29 03:26:15;;;;;;;1.90;1.10;;;14.50;99.90;;;;;;5046246;28;20117;-78
2023/10/29 03:28:41;;;;;;;3.30;0.98;;;14.40;99.90;;;;;;5046605;28;20032;-78
2023/10/29 03:31:14;;;;;;;3.83;1.10;;;14.50;99.90;;;;;;5046252;28;20498;-78
2023/10/29 03:33:40;;;;;;;4.88;1.00;;;14.50;99.90;;;;;;5018217;28;20021;-80
2023/10/29 03:36:07;;;;;;;3.33;1.05;;;14.50;99.90;;;;;;5046476;28;20385;-79
2023/10/29 03:38:33;;;;;;;4.97;0.70;;;14.50;99.90;;;;;;5044883;28;20214;-78
2023/10/29 03:40:59;;;;;;;3.15;1.30;;;14.50;99.90;;;;;;5046250;28;20419;-79
2023/10/29 03:43:24;;;;;;;3.95;1.08;;;14.50;99.90;;;;;;5046260;28;20028;-77
2023/10/29 03:45:50;;;;;;;4.07;0.88;;;14.50;99.90;;;;;;5040605;28;20477;-78
2023/10/29 03:48:15;;;;;;;1.60;0.90;;;14.50;99.90;;;;;;5045026;28;20423;-77
2023/10/29 03:50:42;;;;;;;1.25;0.70;;;14.50;99.90;;;;;;5038459;28;20568;-77
2023/10/29 03:53:07;;;;;;;3.25;1.00;;;14.60;99.90;;;;;;5033839;28;20029;-80
2023/10/29 03:55:36;;;;;;;3.00;0.98;;;14.60;99.90;;;;;;5046178;28;20025;-77
2023/10/29 03:58:02;;;;;;;2.47;0.80;;;14.60;99.90;;;;;;5039357;28;20402;-77
2023/10/29 04:00:29;;;;;;;3.63;0.85;;;14.60;99.90;;;;;;5028037;28;20026;-77
2023/10/29 04:02:55;;;;;;;3.15;0.90;;;14.60;99.90;;;;;;5049268;28;20032;-78
2023/10/29 04:05:24;;;;;;;2.80;0.90;;;14.60;99.90;;;;;;5049723;28;20095;-78
2023/10/29 04:07:50;;;;;;;2.95;0.75;;;14.60;99.90;;;;;;5050423;28;20067;-78
2023/10/29 04:10:15;;;;;;;2.92;0.73;;;14.60;99.90;;;;;;5048290;28;20273;-78
2023/10/29 04:12:41;;;;;;;2.33;0.75;;;14.60;99.90;;;;;;5049641;28;20024;-79
2023/10/29 04:15:07;;;;;;;1.65;0.60;;;14.60;99.90;;;;;;5049627;28;20056;-78
2023/10/29 04:17:33;;;;;;;3.15;0.90;;;14.60;99.90;;;;;;5049659;28;20025;-77
2023/10/29 04:19:59;;;;;;;2.25;0.80;;;14.60;99.90;;;;;;5049769;28;20017;-78
2023/10/29 04:22:25;;;;;;;3.88;1.30;;;14.60;99.90;;;;;;5050051;28;20095;-79
2023/10/29 04:24:50;;;;;;;2.00;0.73;;;14.60;99.90;;;;;;5046282;28;20103;-79
2023/10/29 04:27:16;;;;;;;2.35;0.80;;;14.60;99.90;;;;;;5039381;28;20436;-79
2023/10/29 04:29:42;;;;;;;4.72;0.70;;;14.60;99.90;;;;;;5048390;28;20501;-78
2023/10/29 04:32:08;;;;;;;2.05;0.90;;;14.50;99.90;;;;;;5048355;28;20025;-79
2023/10/29 04:34:34;;;;;;;4.38;1.10;;;14.50;99.90;;;;;;5049754;28;20383;-79
2023/10/29 04:37:00;;;;;;;2.40;0.82;;;14.60;99.90;;;;;;5048081;28;20021;-79
2023/10/29 04:39:26;;;;;;;3.88;0.93;;;14.50;99.90;;;;;;5049417;28;20021;-79
2023/10/29 04:41:51;;;;;;;2.47;0.80;;;14.50;99.90;;;;;;5048125;28;20023;-79
2023/10/29 04:44:17;;;;;;;2.28;0.85;;;14.50;99.90;;;;;;5047002;28;20482;-81
2023/10/29 04:46:43;;;;;;;1.98;0.70;;;14.50;99.90;;;;;;5029287;28;20426;-79
2023/10/29 04:49:09;;;;;;;2.65;0.85;;;14.50;99.90;;;;;;5037000;28;20029;-78
2023/10/29 04:51:34;;;;;;;8.85;1.10;;;14.50;99.90;;;;;;5048837;28;20536;-79
2023/10/29 04:54:00;;;;;;;3.30;0.93;;;14.50;99.90;;;;;;5045269;28;20031;-82
2023/10/29 04:56:26;;;;;;;3.17;1.00;;;14.60;99.90;;;;;;5048757;28;20025;-77
2023/10/29 04:58:52;;;;;;;2.15;0.80;;;14.60;99.90;;;;;;5049342;28;20032;-78
2023/10/29 05:01:18;;;;;;;4.00;1.10;;;14.60;99.90;;;;;;5048551;28;20406;-77
2023/10/29 05:03:44;;;;;;;3.17;1.02;;;14.60;99.90;;;;;;5049110;28;20072;-77
2023/10/29 05:06:20;;;;;;;3.20;0.93;;;14.50;99.90;;;;;;5047026;28;20017;-77
2023/10/29 05:08:45;;;;;;;4.22;1.10;;;14.50;99.90;;;;;;5047491;28;20060;-76
2023/10/29 05:11:11;;;;;;;6.85;1.15;;;14.40;99.90;;;;;;5033340;28;20048;-77
2023/10/29 05:13:38;;;;;;;3.60;1.02;;;14.40;99.90;;;;;;5046991;28;20048;-77
2023/10/29 05:16:04;;;;;;;5.28;1.00;;;14.30;99.90;;;;;;5048381;28;20025;-78
2023/10/29 05:18:30;;;;;;;2.83;0.70;;;14.30;99.90;;;;;;5041294;28;20029;-77
2023/10/29 05:20:56;;;;;;;2.08;1.00;;;14.30;99.90;;;;;;5041600;28;20031;-78
2023/10/29 05:23:22;;;;;;;4.60;0.90;;;14.20;99.90;;;;;;5047167;28;20024;-78
2023/10/29 05:25:47;;;;;;;2.97;0.77;;;14.10;99.90;;;;;;5048425;28;20902;-78
2023/10/29 05:28:13;;;;;;;3.47;0.98;;;14.10;99.90;;;;;;5044785;28;20044;-78
2023/10/29 05:30:41;;;;;;;4.32;0.90;;;14.00;99.90;;;;;;5037631;28;20024;-78
2023/10/29 05:33:07;;;;;;;3.03;0.80;;;14.00;99.90;;;;;;5048400;28;20043;-78
2023/10/29 05:35:33;;;;;;;2.65;0.88;;;14.00;99.90;;;;;;5047886;28;20032;-79
2023/10/29 05:37:59;;;;;;;3.67;1.00;;;13.90;99.90;;;;;;5048322;28;20028;-79
2023/10/29 05:40:24;;;;;;;4.30;1.13;;;13.90;99.90;;;;;;5047936;28;20033;-79
2023/10/29 05:42:50;;;;;;;2.85;1.05;;;13.90;99.90;;;;;;5048441;28;20021;-78
2023/10/29 05:45:16;;;;;;;6.50;1.30;;;13.90;99.90;;;;;;5042043;28;20090;-78
2023/10/29 05:47:41;;;;;;;12.45;2.20;;;13.90;99.90;;;;;;5038579;28;20028;-79
2023/10/29 05:50:07;;;;;;;6.50;1.00;;;13.90;99.90;;;;;;5042513;28;20025;-77
2023/10/29 05:52:33;;;;;;;5.20;1.20;;;13.90;99.90;;;;;;5047871;28;20748;-78
2023/10/29 05:55:03;;;;;;;3.35;1.10;;;13.90;99.90;;;;;;5046541;28;20031;-78
2023/10/29 05:57:29;;;;;;;3.05;0.88;;;14.00;99.90;;;;;;5046615;28;20669;-79
2023/10/29 05:59:55;;;;;;;2.53;0.70;;;14.00;99.90;;;;;;5047768;28;20028;-78
2023/10/29 06:02:21;;;;;;;3.83;1.08;;;14.00;99.90;;;;;;5047806;28;20025;-78
2023/10/29 06:04:46;;;;;;;3.63;0.80;;;13.90;99.90;;;;;;5047699;28;20402;-79
2023/10/29 06:07:15;;;;;;;3.67;0.88;;;13.90;99.90;;;;;;5046251;28;20102;-79
2023/10/29 06:09:41;;;;;;;3.58;0.63;;;13.90;99.90;;;;;;5046204;28;20041;-78
2023/10/29 06:12:08;;;;;;;3.35;0.57;;;13.90;99.90;;;;;;5036744;28;20417;-79
2023/10/29 06:14:34;;;;;;;3.75;0.70;;;13.90;99.90;;;;;;5044393;28;20462;-78
2023/10/29 06:17:00;;;;;;;3.75;0.70;;;13.90;99.90;;;;;;5045860;28;20060;-78
2023/10/29 06:19:26;;;;;;;3.97;0.70;;;13.90;99.90;;;;;;5047358;28;20087;-78
2023/10/29 06:21:52;;;;;;;2.33;0.60;;;13.90;99.90;;;;;;5045847;28;20020;-77
2023/10/29 06:24:18;;;;;;;2.88;0.88;;;13.90;99.90;;;;;;5047083;28;20025;-78
2023/10/29 06:26:43;;;;;;;3.58;0.65;;;13.90;99.90;;;;;;5047486;28;20028;-78
2023/10/29 06:29:09;;;;;;;4.30;0.80;;;13.90;99.90;;;;;;5047693;28;20390;-79
2023/10/29 06:31:35;;;;;;;2.47;0.70;;;13.90;99.90;;;;;;5037039;28;20047;-80
2023/10/29 06:34:02;;;;;;;4.15;0.65;;;13.80;99.90;;;;;;5035027;28;20083;-78
2023/10/29 06:36:28;;;;;;;2.70;0.75;;;13.80;99.90;;;;;;5027489;28;20029;-78
2023/10/29 06:38:55;;;;;;;3.22;0.82;;;13.80;99.90;;;;;;5027908;28;20041;-78
2023/10/29 06:41:20;;;;;;;3.67;0.82;;;13.80;99.90;;;;;;5027252;28;20470;-78
2023/10/29 06:43:47;;;;;;;4.00;1.15;;;13.80;99.90;;;;;;5043348;28;20024;-80
2023/10/29 06:46:17;;;;;;;5.05;0.73;;;13.70;99.90;;;;;;5031485;28;20086;-77
2023/10/29 06:48:43;;;;;;;5.35;0.95;;;13.70;99.90;;;;;;5033834;28;20030;-78
2023/10/29 06:51:10;;;;;;;5.38;1.20;;;13.70;99.90;;;;;;5031895;28;20080;-79
2023/10/29 06:53:38;;;;;;;5.13;0.93;;;13.70;99.90;;;;;;5042192;28;20433;-78
2023/10/29 06:56:05;;;;;;;4.95;1.15;;;13.70;99.90;;;;;;5027797;28;20017;-79
2023/10/29 06:58:31;;;;;;;2.63;0.75;;;13.70;99.90;;;;;;5037717;28;20064;-79
2023/10/29 07:01:09;;;;;;;5.63;0.95;;;13.70;99.90;;;;;;5041246;28;20052;-79
2023/10/29 07:03:35;;;;;;;6.85;0.93;;;13.70;99.90;;;;;;5046121;28;20029;-78
2023/10/29 07:06:08;;;;;;;4.45;1.15;;;13.70;99.90;;;;;;5037096;28;20108;-78
2023/10/29 07:08:35;;;;;;;6.43;1.20;;;13.70;99.90;;;;;;5039386;28;20120;-78
2023/10/29 07:11:02;;;;;;;4.80;1.02;;;13.70;99.90;;;;;;5034127;28;20126;-80
2023/10/29 07:13:28;;;;;;;7.57;1.70;;;13.70;99.90;;;;;;5035393;28;20075;-80
2023/10/29 07:15:55;;;;;;;4.65;0.95;;;13.70;99.90;;;;;;5029302;28;20132;-78
2023/10/29 07:18:22;;;;;;;5.43;1.33;;;13.70;99.90;;;;;;5025999;28;20026;-78
2023/10/29 07:20:50;;;;;;;6.13;1.00;;;13.70;99.90;;;;;;5029541;28;20177;-79
2023/10/29 07:23:16;;;;;;;5.72;1.20;;;13.70;99.90;;;;;;5028237;28;20017;-79
2023/10/29 07:25:42;;;;;;;4.78;0.90;;;13.70;99.90;;;;;;5036905;28;20040;-78
2023/10/29 07:28:07;;;;;;;3.72;1.33;;;13.80;99.90;;;;;;5042798;28;20022;-81
2023/10/29 07:30:33;;;;;;;9.10;1.85;;;13.80;99.90;;;;;;5041488;28;20754;-78
2023/10/29 07:32:59;;;;;;;7.40;1.23;;;13.90;99.90;;;;;;5036429;28;20026;-79
2023/10/29 07:35:24;;;;;;;7.40;1.40;;;13.90;99.90;;;;;;5042814;28;20025;-79
2023/10/29 07:37:50;;;;;;;10.07;2.00;;;13.90;99.90;;;;;;5038162;28;20864;-80
2023/10/29 07:40:16;;;;;;;7.18;1.92;;;13.90;99.90;;;;;;5034833;28;20108;-78
2023/10/29 07:42:42;;;;;;;6.80;1.17;;;13.90;99.90;;;;;;5035046;28;20021;-79
2023/10/29 07:45:07;;;;;;;7.03;1.35;;;13.90;99.90;;;;;;5032892;28;20032;-79
2023/10/29 07:47:33;;;;;;;5.18;1.30;;;13.90;99.90;;;;;;5030408;28;20444;-78
2023/10/29 07:49:59;;;;;;;10.25;1.67;;;13.90;99.90;;;;;;5034693;28;20028;-80
2023/10/29 07:52:24;;;;;;;8.18;1.80;;;13.90;99.90;;;;;;5037024;28;20567;-80
2023/10/29 07:54:50;;;;;;;9.75;1.98;;;14.00;99.90;;;;;;5047479;28;20051;-80
2023/10/29 07:57:16;;;;;;;6.78;1.63;;;14.00;99.90;;;;;;5041729;28;20040;-80
2023/10/29 07:59:42;;;;;;;14.48;1.70;;;14.00;99.90;;;;;;5044992;28;20029;-79
2023/10/29 08:02:08;;;;;;;13.52;1.70;;;14.00;99.90;;;;;;5030992;28;20022;-79
2023/10/29 08:04:34;;;;;;;9.80;2.10;;;14.10;99.90;;;;;;5041185;28;20032;-78
2023/10/29 08:07:00;;;;;;;6.35;1.35;;;14.10;99.90;;;;;;5035676;28;20029;-78
2023/10/29 08:09:27;;;;;;;11.05;2.20;;;14.00;99.90;;;;;;5032168;28;20882;-80
2023/10/29 08:11:52;;;;;;;10.70;1.95;;;14.00;99.90;;;;;;5049819;28;20362;-80
2023/10/29 08:14:18;;;;;;;7.75;1.50;;;14.00;99.90;;;;;;5049132;28;20522;-79
2023/10/29 08:16:44;;;;;;;8.63;1.92;;;14.00;99.90;;;;;;5049618;28;20033;-79
2023/10/29 08:19:09;;;;;;;6.22;1.60;;;14.00;99.90;;;;;;5050055;28;20021;-80
2023/10/29 08:21:35;;;;;;;8.65;1.52;;;14.00;99.90;;;;;;5046214;28;20025;-79
2023/10/29 08:24:00;;;;;;;8.88;1.90;;;14.10;99.90;;;;;;5027926;28;20022;-79
2023/10/29 08:26:28;;;;;;;10.18;1.92;;;14.20;99.90;;;;;;5035260;28;20509;-79
2023/10/29 08:28:54;;;;;;;8.02;1.90;;;14.20;99.90;;;;;;5018575;28;20032;-79
2023/10/29 08:31:21;;;;;;;5.38;1.73;;;14.30;99.90;;;;;;5034104;28;20025;-79
2023/10/29 08:33:47;;;;;;;7.80;1.60;;;14.30;99.90;;;;;;5022364;28;20653;-78
2023/10/29 08:36:16;;;;;;;14.20;1.77;;;14.40;99.90;;;;;;5031629;28;20045;-78
2023/10/29 08:38:42;;;;;;;9.38;2.33;;;14.50;99.90;;;;;;5036322;28;20033;-80
2023/10/29 08:41:17;;;;;;;10.35;2.28;;;14.50;99.90;;;;;;5045555;28;20027;-80
2023/10/29 08:43:44;;;;;;;12.40;2.28;;;14.60;99.90;;;;;;5044657;28;20033;-81
2023/10/29 08:46:10;;;;;;;7.10;1.90;;;14.60;99.90;;;;;;5030857;28;20100;-77
2023/10/29 08:48:36;;;;;;;10.60;2.33;;;14.60;99.90;;;;;;5034347;28;20075;-78
2023/10/29 08:51:01;;;;;;;9.98;1.60;;;14.70;99.90;;;;;;5035098;28;20044;-79
2023/10/29 08:53:27;;;;;;;8.23;1.90;;;14.70;99.90;;;;;;5032615;28;20490;-79
2023/10/29 08:55:53;;;;;;;9.48;2.58;;;14.70;99.90;;;;;;5038179;28;20013;-79
2023/10/29 08:58:20;;;;;;;9.80;2.50;;;14.70;99.90;;;;;;5040553;28;20029;-80
2023/10/29 09:00:46;;;;;;;10.18;1.98;;;14.70;99.90;;;;;;5040162;28;20390;-79
2023/10/29 09:03:15;;;;;;;13.30;2.60;;;14.70;99.90;;;;;;5045493;28;20021;-78
2023/10/29 09:05:42;;;;;;;9.45;2.53;;;14.80;99.90;;;;;;5032852;28;20025;-79
2023/10/29 09:08:08;;;;;;;7.85;1.70;;;14.80;99.90;;;;;;5043401;28;20013;-78
2023/10/29 09:10:34;;;;;;;11.68;2.25;;;14.90;99.90;;;;;;5040085;28;20037;-80
2023/10/29 09:12:59;;;;;;;9.00;1.83;;;15.00;99.90;;;;;;5044945;28;20498;-78
2023/10/29 09:15:25;;;;;;;12.13;2.20;;;15.00;99.90;;;;;;5039019;28;20771;-78
2023/10/29 09:17:52;;;;;;;10.68;2.15;;;15.10;99.90;;;;;;5043347;28;20033;-78
2023/10/29 09:20:18;;;;;;;9.15;2.20;;;15.10;99.90;;;;;;5047140;28;20386;-78
2023/10/29 09:22:43;;;;;;;11.23;2.35;;;15.20;99.90;;;;;;5048224;28;20083;-80
2023/10/29 09:25:09;;;;;;;8.13;1.65;;;15.20;99.90;;;;;;5035853;28;20048;-81
2023/10/29 09:27:35;;;;;;;7.45;1.60;;;15.20;99.90;;;;;;5029019;28;20045;-81
2023/10/29 09:30:01;;;;;;;9.85;1.95;;;15.20;99.90;;;;;;5027518;28;20784;-81
2023/10/29 09:32:26;;;;;;;4.70;1.60;;;15.20;99.90;;;;;;5037851;28;20494;-80
2023/10/29 09:34:52;;;;;;;6.75;1.70;;;15.20;99.90;;;;;;5047476;28;20027;-79
2023/10/29 09:37:18;;;;;;;10.05;2.17;;;15.20;99.90;;;;;;5047856;28;20079;-81
2023/10/29 09:39:43;;;;;;;10.65;1.73;;;15.20;99.90;;;;;;5048507;28;20025;-78
2023/10/29 09:42:11;;;;;;;9.50;1.55;;;15.30;99.90;;;;;;5048109;28;20016;-80
2023/10/29 09:44:44;;;;;;;10.60;1.90;;;15.40;99.90;;;;;;5042556;28;20491;-79
2023/10/29 09:47:17;;;;;;;6.18;2.00;;;15.40;99.90;;;;;;5047703;28;20066;-79
2023/10/29 09:49:42;;;;;;;6.10;1.45;;;15.50;99.90;;;;;;5034931;28;20022;-80
2023/10/29 09:52:09;;;;;;;9.45;1.80;;;15.50;99.90;;;;;;5020132;28;20029;-79
2023/10/29 09:54:37;;;;;;;5.35;1.60;;;15.50;99.90;;;;;;5048092;28;20032;-80
2023/10/29 09:57:03;;;;;;;9.18;2.20;;;15.50;99.90;;;;;;5047491;28;20029;-80
2023/10/29 09:59:29;;;;;;;12.18;1.73;;;15.50;99.90;;;;;;5048078;28;20021;-78
2023/10/29 10:01:55;;;;;;;12.20;1.80;;;15.50;99.90;;;;;;5037392;28;20742;-82
2023/10/29 10:04:20;;;;;;;7.82;1.50;;;15.60;99.90;;;;;;5045711;28;20036;-83
2023/10/29 10:06:48;;;;;;;7.03;1.40;;;15.50;99.90;;;;;;5047008;28;20025;-80
2023/10/29 10:09:14;;;;;;;7.78;1.77;;;15.60;99.90;;;;;;5047779;28;20117;-80
2023/10/29 10:11:39;;;;;;;6.32;1.67;;;15.70;99.90;;;;;;5047511;28;20132;-78
2023/10/29 10:14:05;;;;;;;9.18;1.90;;;15.80;99.90;;;;;;5047537;28;20041;-78
2023/10/29 10:16:31;;;;;;;11.30;1.88;;;15.80;99.90;;;;;;5047300;28;20017;-82
2023/10/29 10:18:58;;;;;;;9.10;1.77;;;15.80;99.90;;;;;;5048040;28;20032;-81
2023/10/29 10:21:42;;;;;;;8.00;1.38;;;15.70;99.90;;;;;;5047520;28;20020;-79
2023/10/29 10:24:08;;;;;;;11.73;2.22;;;15.70;99.90;;;;;;5047835;28;20029;-81
2023/10/29 10:26:35;;;;;;;9.57;1.90;;;15.70;99.90;;;;;;5045780;28;20027;-79
2023/10/29 10:29:03;;;;;;;10.27;1.80;;;15.60;99.90;;;;;;5048225;28;20063;-79
2023/10/29 10:31:31;;;;;;;10.35;2.28;;;15.60;99.90;;;;;;5043647;28;20056;-80
2023/10/29 10:34:10;;;;;;;8.23;1.98;;;15.50;99.90;;;;;;5034588;28;20100;-79
2023/10/29 10:36:35;;;;;;;7.90;2.10;;;15.50;99.90;;;;;;5018558;28;20044;-79
2023/10/29 10:39:01;;;;;;;8.75;1.60;;;15.40;99.90;;;;;;5027954;28;20033;-78
2023/10/29 10:41:42;;;;;;;6.18;1.73;;;15.40;99.90;;;;;;5039924;28;20029;-80
2023/10/29 10:44:10;;;;;;;9.60;1.50;;;15.40;99.90;;;;;;5045994;28;20017;-81
2023/10/29 10:46:37;;;;;;;6.40;1.52;;;15.30;99.90;;;;;;5017066;28;20030;-79
2023/10/29 10:49:08;;;;;;;7.38;1.80;;;15.30;99.90;;;;;;5022133;28;20556;-78
2023/10/29 10:51:39;;;;;;;10.48;2.22;;;15.30;99.90;;;;;;5023665;28;20017;-81
2023/10/29 10:54:05;;;;;;;9.50;1.65;;;15.30;99.90;;;;;;5025689;28;20021;-80
2023/10/29 10:56:35;;;;;;;9.13;2.00;;;15.30;99.90;;;;;;5046463;28;20028;-79
2023/10/29 10:59:06;;;;;;;8.32;1.95;;;15.40;99.90;;;;;;5045832;28;20119;-80
2023/10/29 11:01:36;;;;;;;17.80;2.17;;;15.40;99.90;;;;;;5045529;28;20062;-78
2023/10/29 11:04:03;;;;;;;13.73;2.35;;;15.50;99.90;;;;;;5045792;28;20044;-79
2023/10/29 11:06:32;;;;;;;6.05;1.70;;;15.50;99.90;;;;;;5021480;28;20574;-80
2023/10/29 11:08:59;;;;;;;9.88;2.15;;;15.50;99.90;;;;;;5022977;28;20033;-77
2023/10/29 11:11:37;;;;;;;7.70;1.92;;;15.50;99.90;;;;;;5029754;28;20056;-79
2023/10/29 11:14:13;;;;;;;9.98;1.85;;;15.40;99.90;;;;;;5038560;28;20102;-79
2023/10/29 11:17:05;;;;;;;9.10;2.28;;;15.40;99.90;;;;;;5020010;28;20036;-80
2023/10/29 11:19:37;;;;;;;9.55;1.77;;;15.40;99.90;;;;;;5045469;28;20033;-79
2023/10/29 11:22:21;;;;;;;7.35;1.23;;;15.30;99.90;;;;;;5018400;28;20029;-80
2023/10/29 11:25:14;;;;;;;12.02;2.22;;;15.30;99.90;;;;;;5026537;28;20095;-80
2023/10/29 11:27:44;;;;;;;10.98;2.20;;;15.30;99.90;;;;;;5024961;28;20038;-83
2023/10/29 11:30:18;;;;;;;11.00;2.20;;;15.30;99.90;;;;;;5023065;28;20487;-81
2023/10/29 11:32:45;;;;;;;9.07;1.60;;;15.20;99.90;;;;;;5020314;28;20502;-81
2023/10/29 11:35:14;;;;;;;8.55;1.80;;;15.30;99.90;;;;;;5021310;28;20029;-79
2023/10/29 11:37:44;;;;;;;8.90;2.13;;;15.30;99.90;;;;;;5021103;28;20040;-80
2023/10/29 11:40:31;;;;;;;8.57;1.75;;;15.30;99.90;;;;;;5017490;28;20032;-79
2023/10/29 11:43:14;;;;;;;8.25;1.67;;;15.20;99.90;;;;;;5008309;28;20018;-83
2023/10/29 11:45:39;;;;;;;6.60;1.42;;;15.20;99.90;;;;;;5019654;28;20032;-82
2023/10/29 11:48:09;;;;;;;6.75;1.75;;;15.20;99.90;;;;;;5025287;28;20025;-83
2023/10/29 11:50:38;;;;;;;10.60;1.77;;;15.20;99.90;;;;;;5031821;28;20029;-82
2023/10/29 11:53:04;;;;;;;8.38;2.00;;;15.20;99.90;;;;;;5027479;28;20030;-79
2023/10/29 11:55:39;;;;;;;9.00;1.95;;;15.30;99.90;;;;;;5023077;28;20021;-81
2023/10/29 11:58:06;;;;;;;9.02;2.08;;;15.20;99.90;;;;;;5019294;28;20510;-78
2023/10/29 12:00:38;;;;;;;9.15;1.83;;;15.30;99.90;;;;;;5024981;28;20052;-83
2023/10/29 12:03:04;;;;;;;13.18;1.88;;;15.20;99.90;;;;;;5021048;28;20032;-82
2023/10/29 12:05:30;;;;;;;10.90;1.88;;;15.20;99.90;;;;;;5023454;28;20026;-80
2023/10/29 12:08:00;;;;;;;7.20;1.77;;;15.20;99.90;;;;;;5034517;22;20053;-85
2023/10/29 12:10:26;;;;;;;10.52;2.40;;;15.30;99.90;;;;;;5035558;28;20120;-81
2023/10/29 12:12:55;;;;;;;12.95;2.13;;;15.30;99.90;;;;;;5041331;28;20180;-81
2023/10/29 12:15:24;;;;;;;8.80;2.05;;;15.40;99.90;;;;;;5043979;28;20037;-83
2023/10/29 12:17:50;;;;;;;10.65;1.95;;;15.60;99.90;;;;;;5051257;22;20012;-80
2023/10/29 12:20:21;;;;;;;8.85;2.15;;;15.80;99.90;;;;;;5046581;28;20067;-84
2023/10/29 12:23:02;;;;;;;12.90;2.22;;;15.90;99.90;;;;;;5052489;28;20032;-82
2023/10/29 12:25:29;;;;;;;9.10;2.13;;;15.90;99.90;;;;;;5050144;28;20025;-84
2023/10/29 12:27:55;;;;;;;10.65;2.25;;;15.90;99.90;;;;;;5045446;28;20027;-86
2023/10/29 12:30:41;;;;;;;10.40;2.00;;;15.90;99.90;;;;;;5050701;28;20112;-81
2023/10/29 12:33:26;;;;;;;8.82;2.13;;;15.80;99.90;;;;;;5050827;28;20029;-79
2023/10/29 12:35:54;;;;;;;8.52;2.05;;;15.80;99.90;;;;;;5045081;28;20385;-83
2023/10/29 12:38:21;;;;;;;7.72;2.25;;;15.80;99.90;;;;;;5048279;28;20049;-79
2023/10/29 12:41:16;;;;;;;9.05;1.70;;;15.90;99.90;;;;;;5053783;22;20102;-81
2023/10/29 12:43:49;;;;;;;9.23;2.05;;;16.00;99.90;;;;;;5050057;28;20031;-82
2023/10/29 12:46:25;;;;;;;11.05;2.22;;;16.00;99.90;;;;;;5047483;28;20029;-81